METAR Data
IDs: Format: Raw Decoded Include TAF

Data at: 0018 UTC 30 May 2020

METAR for:KCID (Cedar Rapids/E Iowao, IA, US)
Text:KCID 292352Z 36011KT 10SM CLR 18/08 A3011 RMK AO2 SLP195 T01830078 10194 20167 53003
Temperature: 18.3°C ( 65°F)
Dewpoint: 7.8°C ( 46°F) [RH = 50%]
Pressure (altimeter):30.11 inches Hg (1019.7 mb) [Sea level pressure: 1019.5 mb]
Winds:from the N (360 degrees) at 13 MPH (11 knots; 5.7 m/s)
Visibility:10 or more sm (16+ km)
Ceiling:at least 12,000 feet AGL
Clouds:sky clear below 12,000 feet AGL